Medallion — V7KM6 — position and weather

sailwx.info

Track history (hours):
 
Tides and Currents Weather Stations Pressure Air Temp Water Temp Dewpoint Dewpoint Depression Visibility Wind Speed Wind Dir Waves Ship Positions

Medallion

Last reported at 2014-Sep-01 13:33 UTC. Time now 2014-Sep-01 13:37 UTC.
Position N 41°06' W 072°22'.

Length 20 m; draft 2.2 m.

Type: Pleasure craft. MMSI: 538070246.

Date/timePositionNaut miles runAvg speedWind from/ knotsBaromVisibWave heightAir tempDewpointWater temp
2014-Sep-01 13:33N 41°06' W 072°22'0 0.0
2014-Sep-01 12:31N 41°06' W 072°22'0 0.0
2014-Sep-01 11:32N 41°06' W 072°22'0 0.0
2014-Sep-01 10:32N 41°06' W 072°22'0 0.0
2014-Sep-01 09:33N 41°06' W 072°22'0 0.0
2014-Sep-01 08:31N 41°06' W 072°22'0 0.0
2014-Sep-01 07:31N 41°06' W 072°22'0 0.0
2014-Sep-01 06:32N 41°06' W 072°22'0 0.0
2014-Sep-01 05:33N 41°06' W 072°22'0 0.0
2014-Sep-01 04:33N 41°06' W 072°22'0 0.0
2014-Sep-01 03:31N 41°06' W 072°22'0 0.0
2014-Sep-01 02:32N 41°06' W 072°22'0 0.0
2014-Sep-01 01:32N 41°06' W 072°22'0 0.0
2014-Sep-01 00:33N 41°06' W 072°22'0 0.0
2014-Aug-31 23:31N 41°06' W 072°22'0 0.0
2014-Aug-31 22:31N 41°06' W 072°22'0 0.0
2014-Aug-31 17:34N 41°06' W 072°22'4 4.1
2014-Aug-31 16:33N 41°02' W 072°21'3 1.0
2014-Aug-31 13:08N 41°00' W 072°17'0 0.0
2014-Aug-31 12:33N 41°00' W 072°17'0 0.0
2014-Aug-31 11:33N 41°00' W 072°17'0 0.0
2014-Aug-31 10:31N 41°00' W 072°17'0 0.0
2014-Aug-31 09:32N 41°00' W 072°17'0 0.0
2014-Aug-31 08:32N 41°00' W 072°17'0 0.0
2014-Aug-31 07:33N 41°00' W 072°17'0 0.0
2014-Aug-31 06:31N 41°00' W 072°17'0 0.0
2014-Aug-31 05:31N 41°00' W 072°17'0 0.0
2014-Aug-31 04:32N 41°00' W 072°17'0 0.0
2014-Aug-31 03:33N 41°00' W 072°17'0 0.0
2014-Aug-31 02:33N 41°00' W 072°17'0 0.0
2014-Aug-31 01:28N 41°00' W 072°17'0 0.0
2014-Aug-31 00:32N 41°00' W 072°17'0 0.0
2014-Aug-30 23:32N 41°00' W 072°17'0 0.0
2014-Aug-30 22:33N 41°00' W 072°17'0 0.0
2014-Aug-30 21:31N 41°00' W 072°17'0 0.0
2014-Aug-30 20:31N 41°00' W 072°17'0 0.0
2014-Aug-30 19:32N 41°00' W 072°17'0 0.0
2014-Aug-30 18:33N 41°00' W 072°17'0 0.0
2014-Aug-30 17:31N 41°00' W 072°17'0 0.0
2014-Aug-30 16:31N 41°00' W 072°17'0 0.0
2014-Aug-30 15:32N 41°00' W 072°17'0 0.0
2014-Aug-30 14:32N 41°00' W 072°17'4 3.7
2014-Aug-30 13:34N 41°04' W 072°15'6 5.6
2014-Aug-30 12:33N 41°06' W 072°22'0 0.0
2014-Aug-30 11:31N 41°06' W 072°22'0 0.0
2014-Aug-30 10:31N 41°06' W 072°22'0 0.0
2014-Aug-30 09:32N 41°06' W 072°22'0 0.0
2014-Aug-30 08:33N 41°06' W 072°22'0 0.0
2014-Aug-30 07:33N 41°06' W 072°22'0 0.0
2014-Aug-30 06:31N 41°06' W 072°22'0 0.0
2014-Aug-30 05:32N 41°06' W 072°22'0 0.0
2014-Aug-30 04:32N 41°06' W 072°22'0 0.0
2014-Aug-30 03:33N 41°06' W 072°22'0 0.0
2014-Aug-30 02:31N 41°06' W 072°22'0 0.0
2014-Aug-30 01:31N 41°06' W 072°22'0 0.0
2014-Aug-30 00:32N 41°06' W 072°22'0 0.0
2014-Aug-29 23:33N 41°06' W 072°22'0 0.0
2014-Aug-29 22:33N 41°06' W 072°22'0 0.0
2014-Aug-29 21:31N 41°06' W 072°22'0 0.0
2014-Aug-29 20:32N 41°06' W 072°22'0 0.0
2014-Aug-29 19:32N 41°06' W 072°22'0 0.0
2014-Aug-29 18:33N 41°06' W 072°22'0 0.0
2014-Aug-29 17:31N 41°06' W 072°22'0 0.0
2014-Aug-29 16:31N 41°06' W 072°22'0 0.0
2014-Aug-29 15:32N 41°06' W 072°22'0 0.0
2014-Aug-29 14:33N 41°06' W 072°22'0 0.0
2014-Aug-29 13:33N 41°06' W 072°22'0 0.0
2014-Aug-29 12:31N 41°06' W 072°22'0 0.0
2014-Aug-29 11:32N 41°06' W 072°22'0 0.0
2014-Aug-29 10:32N 41°06' W 072°22'0 0.0
2014-Aug-29 09:33N 41°06' W 072°22'0 0.0
2014-Aug-29 08:31N 41°06' W 072°22'0 0.0
2014-Aug-29 07:31N 41°06' W 072°22'0 0.0
2014-Aug-29 06:32N 41°06' W 072°22'0 0.0
2014-Aug-29 05:33N 41°06' W 072°22'0 0.0
2014-Aug-29 04:33N 41°06' W 072°22'0 0.0
2014-Aug-29 03:31N 41°06' W 072°22'0 0.0
2014-Aug-29 02:32N 41°06' W 072°22'0 0.0
2014-Aug-29 01:32N 41°06' W 072°22'0 0.0
2014-Aug-29 00:33N 41°06' W 072°22'0 0.0
2014-Aug-28 23:31N 41°06' W 072°22'0 0.0
2014-Aug-28 22:31N 41°06' W 072°22'0 0.0
2014-Aug-28 21:32N 41°06' W 072°22'0 0.0
2014-Aug-28 20:33N 41°06' W 072°22'0 0.0
2014-Aug-28 19:33N 41°06' W 072°22'0 0.0
2014-Aug-28 18:31N 41°06' W 072°22'0 0.0
2014-Aug-28 17:32N 41°06' W 072°22'0 0.0
2014-Aug-28 16:33N 41°06' W 072°22'0 0.0
2014-Aug-28 15:33N 41°06' W 072°22'0 0.0
2014-Aug-28 14:31N 41°06' W 072°22'0 0.0
2014-Aug-28 13:32N 41°06' W 072°22'0 0.0
2014-Aug-28 12:32N 41°06' W 072°22'0 0.0
2014-Aug-28 11:33N 41°06' W 072°22'0 0.0
2014-Aug-28 10:34N 41°06' W 072°22'0 0.0
2014-Aug-28 09:31N 41°06' W 072°22'0 0.0
2014-Aug-28 08:32N 41°06' W 072°22'0 0.0
2014-Aug-28 07:33N 41°06' W 072°22'0 0.0
2014-Aug-28 06:33N 41°06' W 072°22'0 0.0
2014-Aug-28 05:31N 41°06' W 072°22'0 0.0
2014-Aug-28 04:32N 41°06' W 072°22'0 0.0
2014-Aug-28 03:32N 41°06' W 072°22'0 0.0
2014-Aug-28 02:30N 41°06' W 072°22'0 0.0
2014-Aug-28 01:31N 41°06' W 072°22'0 0.0
2014-Aug-28 00:31N 41°06' W 072°22'0 0.0
2014-Aug-27 23:32N 41°06' W 072°22'0 0.0
2014-Aug-27 22:33N 41°06' W 072°22'0 0.0
2014-Aug-27 21:33N 41°06' W 072°22'0 0.0
2014-Aug-27 20:31N 41°06' W 072°22'0 0.0
2014-Aug-27 19:32N 41°06' W 072°22'0 0.0
2014-Aug-27 18:32N 41°06' W 072°22'0 0.0
2014-Aug-27 17:33N 41°06' W 072°22'0 0.0
2014-Aug-27 16:31N 41°06' W 072°22'0 0.0
2014-Aug-27 15:31N 41°06' W 072°22'0 0.0
2014-Aug-27 14:32N 41°06' W 072°22'0 0.0
2014-Aug-27 13:33N 41°06' W 072°22'0 0.0
2014-Aug-27 12:33N 41°06' W 072°22'0 0.0
2014-Aug-27 11:31N 41°06' W 072°22'0 0.0
2014-Aug-27 10:32N 41°06' W 072°22'0 0.0
2014-Aug-27 09:32N 41°06' W 072°22'0 0.0
2014-Aug-27 08:33N 41°06' W 072°22'0 0.0
2014-Aug-27 07:33N 41°06' W 072°22'0 0.0
2014-Aug-27 06:33N 41°06' W 072°22'0 0.0
2014-Aug-27 05:31N 41°06' W 072°22'0 0.0
2014-Aug-27 04:26N 41°06' W 072°22'0 0.0
2014-Aug-27 03:32N 41°06' W 072°22'0 0.0
2014-Aug-27 02:31N 41°06' W 072°22'0 0.0
2014-Aug-27 01:33N 41°06' W 072°22'0 0.0
2014-Aug-27 00:27N 41°06' W 072°22'0 0.0
2014-Aug-26 23:31N 41°06' W 072°22'0 0.0
2014-Aug-26 22:31N 41°06' W 072°22'0 0.0
2014-Aug-26 21:31N 41°06' W 072°22'0 0.0
2014-Aug-26 20:32N 41°06' W 072°22'0 0.0
2014-Aug-26 19:33N 41°06' W 072°22'0 0.0
2014-Aug-26 18:33N 41°06' W 072°22'0 0.0
2014-Aug-26 17:31N 41°06' W 072°22'0 0.0
2014-Aug-26 16:32N 41°06' W 072°22'0 0.0
2014-Aug-26 15:32N 41°06' W 072°22'0 0.0
2014-Aug-26 14:33N 41°06' W 072°22'0 0.0
2014-Aug-26 13:31N 41°06' W 072°22'0 0.0
2014-Aug-26 12:31N 41°06' W 072°22'0 0.0
2014-Aug-26 11:32N 41°06' W 072°22'0 0.0
2014-Aug-26 10:33N 41°06' W 072°22'0 0.0
2014-Aug-26 09:33N 41°06' W 072°22'0 0.0
2014-Aug-26 08:31N 41°06' W 072°22'0 0.0
2014-Aug-26 07:32N 41°06' W 072°22'0 0.0
2014-Aug-26 06:32N 41°06' W 072°22'0 0.0
2014-Aug-26 05:33N 41°06' W 072°22'0 0.0
2014-Aug-26 04:31N 41°06' W 072°22'0 0.0
2014-Aug-26 03:32N 41°06' W 072°22'0 0.0
2014-Aug-26 02:32N 41°06' W 072°22'0 0.0
2014-Aug-26 01:33N 41°06' W 072°22'0 0.0
2014-Aug-26 00:33N 41°06' W 072°22'0 0.0
2014-Aug-25 23:31N 41°06' W 072°22'0 0.0
2014-Aug-25 22:32N 41°06' W 072°22'0 0.0
2014-Aug-25 21:33N 41°06' W 072°22'0 0.0
2014-Aug-25 20:33N 41°06' W 072°22'0 0.0
2014-Aug-25 19:31N 41°06' W 072°22'0 0.0
2014-Aug-25 18:29N 41°06' W 072°22'0 0.0
2014-Aug-25 17:32N 41°06' W 072°22'0 0.0
2014-Aug-25 16:33N 41°06' W 072°22'0 0.0
2014-Aug-25 15:34N 41°06' W 072°22'0 0.0
2014-Aug-25 14:31N 41°06' W 072°22'0 0.0
2014-Aug-25 13:32N 41°06' W 072°22'0 0.0
2014-Aug-25 12:33N 41°06' W 072°22'0 0.0
2014-Aug-25 11:33N 41°06' W 072°22'0 0.0
2014-Aug-25 10:31N 41°06' W 072°22'0 0.0
2014-Aug-25 09:32N 41°06' W 072°22'0 0.0
2014-Aug-25 08:32N 41°06' W 072°22'0 0.0
2014-Aug-25 07:33N 41°06' W 072°22'0 0.0
2014-Aug-25 06:34N 41°06' W 072°22'0 0.0
2014-Aug-25 05:31N 41°06' W 072°22'0 0.0
2014-Aug-25 04:32N 41°06' W 072°22'0 0.0
2014-Aug-25 03:33N 41°06' W 072°22'0 0.0
2014-Aug-25 02:33N 41°06' W 072°22'0 0.0
2014-Aug-25 01:31N 41°06' W 072°22'0 0.0
2014-Aug-25 00:32N 41°06' W 072°22'0 0.0
2014-Aug-24 23:32N 41°06' W 072°22'0 0.0
2014-Aug-24 22:33N 41°06' W 072°22'0 0.0
2014-Aug-24 21:31N 41°06' W 072°22'0 0.0
2014-Aug-24 20:31N 41°06' W 072°22'0 0.0
2014-Aug-24 19:32N 41°06' W 072°22'0 0.0
2014-Aug-24 18:33N 41°06' W 072°22'0 0.0
2014-Aug-24 17:33N 41°06' W 072°22'0 0.0
2014-Aug-24 16:28N 41°06' W 072°22'0 0.0
2014-Aug-24 15:32N 41°06' W 072°22'0 0.0
2014-Aug-24 14:32N 41°06' W 072°22'0 0.0
2014-Aug-24 13:33N 41°06' W 072°22'0 0.0
2014-Aug-24 12:31N 41°06' W 072°22'0 0.0
2014-Aug-24 11:31N 41°06' W 072°22'0 0.0
2014-Aug-24 10:32N 41°06' W 072°22'0 0.0
2014-Aug-24 09:33N 41°06' W 072°22'0 0.0
2014-Aug-24 08:33N 41°06' W 072°22'0 0.0
2014-Aug-24 07:31N 41°06' W 072°22'0 0.0
2014-Aug-24 06:32N 41°06' W 072°22'0 0.0
2014-Aug-24 05:32N 41°06' W 072°22'0 0.0
2014-Aug-24 04:33N 41°06' W 072°22'0 0.0
2014-Aug-24 03:31N 41°06' W 072°22'0 0.0
2014-Aug-24 02:31N 41°06' W 072°22'0 0.0
2014-Aug-24 01:32N 41°06' W 072°22'0 0.0
2014-Aug-24 00:33N 41°06' W 072°22'0 0.0
2014-Aug-23 23:33N 41°06' W 072°22'0 0.0
2014-Aug-23 22:31N 41°06' W 072°22'0 0.0
2014-Aug-23 21:32N 41°06' W 072°22'0 0.0
2014-Aug-23 20:32N 41°06' W 072°22'0 0.0
2014-Aug-23 19:33N 41°06' W 072°22'0 0.0
2014-Aug-23 03:32N 41°06' W 072°22'0 0.0
2014-Aug-23 02:33N 41°06' W 072°22'0 0.0
2014-Aug-23 01:33N 41°06' W 072°22'0 0.0
2014-Aug-23 00:31N 41°06' W 072°22'0 0.0
2014-Aug-22 23:32N 41°06' W 072°22'0 0.0
2014-Aug-22 22:32N 41°06' W 072°22'0 0.0
2014-Aug-22 21:33N 41°06' W 072°22'0 0.0
2014-Aug-22 20:31N 41°06' W 072°22'0 0.0
2014-Aug-22 19:31N 41°06' W 072°22'0 0.0
2014-Aug-22 18:32N 41°06' W 072°22'0 0.0
2014-Aug-22 17:33N 41°06' W 072°22'0 0.0
2014-Aug-22 16:33N 41°06' W 072°22'0 0.0
2014-Aug-22 15:31N 41°06' W 072°22'0 0.0
2014-Aug-22 14:32N 41°06' W 072°22'  
Track history (hours):
 
Tides and Currents Weather Stations Pressure Air Temp Water Temp Dewpoint Dewpoint Depression Visibility Wind Speed Wind Dir Waves Ship Positions

Medallion

Last reported at 2014-Sep-01 13:33 UTC. Time now 2014-Sep-01 13:37 UTC.
Position N 41°06' W 072°22'.

Length 20 m; draft 2.2 m.

Type: Pleasure craft. MMSI: 538070246.

Date/timePositionNaut miles runAvg speedWind from/ knotsBaromVisibWave heightAir tempDewpointWater temp
2014-Sep-01 13:33N 41°06' W 072°22'0 0.0
2014-Sep-01 12:31N 41°06' W 072°22'0 0.0
2014-Sep-01 11:32N 41°06' W 072°22'0 0.0
2014-Sep-01 10:32N 41°06' W 072°22'0 0.0
2014-Sep-01 09:33N 41°06' W 072°22'0 0.0
2014-Sep-01 08:31N 41°06' W 072°22'0 0.0
2014-Sep-01 07:31N 41°06' W 072°22'0 0.0
2014-Sep-01 06:32N 41°06' W 072°22'0 0.0
2014-Sep-01 05:33N 41°06' W 072°22'0 0.0
2014-Sep-01 04:33N 41°06' W 072°22'0 0.0
2014-Sep-01 03:31N 41°06' W 072°22'0 0.0
2014-Sep-01 02:32N 41°06' W 072°22'0 0.0
2014-Sep-01 01:32N 41°06' W 072°22'0 0.0
2014-Sep-01 00:33N 41°06' W 072°22'0 0.0
2014-Aug-31 23:31N 41°06' W 072°22'0 0.0
2014-Aug-31 22:31N 41°06' W 072°22'0 0.0
2014-Aug-31 17:34N 41°06' W 072°22'4 4.1
2014-Aug-31 16:33N 41°02' W 072°21'3 1.0
2014-Aug-31 13:08N 41°00' W 072°17'0 0.0
2014-Aug-31 12:33N 41°00' W 072°17'0 0.0
2014-Aug-31 11:33N 41°00' W 072°17'0 0.0
2014-Aug-31 10:31N 41°00' W 072°17'0 0.0
2014-Aug-31 09:32N 41°00' W 072°17'0 0.0
2014-Aug-31 08:32N 41°00' W 072°17'0 0.0
2014-Aug-31 07:33N 41°00' W 072°17'0 0.0
2014-Aug-31 06:31N 41°00' W 072°17'0 0.0
2014-Aug-31 05:31N 41°00' W 072°17'0 0.0
2014-Aug-31 04:32N 41°00' W 072°17'0 0.0
2014-Aug-31 03:33N 41°00' W 072°17'0 0.0
2014-Aug-31 02:33N 41°00' W 072°17'0 0.0
2014-Aug-31 01:28N 41°00' W 072°17'0 0.0
2014-Aug-31 00:32N 41°00' W 072°17'0 0.0
2014-Aug-30 23:32N 41°00' W 072°17'0 0.0
2014-Aug-30 22:33N 41°00' W 072°17'0 0.0
2014-Aug-30 21:31N 41°00' W 072°17'0 0.0
2014-Aug-30 20:31N 41°00' W 072°17'0 0.0
2014-Aug-30 19:32N 41°00' W 072°17'0 0.0
2014-Aug-30 18:33N 41°00' W 072°17'0 0.0
2014-Aug-30 17:31N 41°00' W 072°17'0 0.0
2014-Aug-30 16:31N 41°00' W 072°17'0 0.0
2014-Aug-30 15:32N 41°00' W 072°17'0 0.0
2014-Aug-30 14:32N 41°00' W 072°17'4 3.7
2014-Aug-30 13:34N 41°04' W 072°15'6 5.6
2014-Aug-30 12:33N 41°06' W 072°22'0 0.0
2014-Aug-30 11:31N 41°06' W 072°22'0 0.0
2014-Aug-30 10:31N 41°06' W 072°22'0 0.0
2014-Aug-30 09:32N 41°06' W 072°22'0 0.0
2014-Aug-30 08:33N 41°06' W 072°22'0 0.0
2014-Aug-30 07:33N 41°06' W 072°22'0 0.0
2014-Aug-30 06:31N 41°06' W 072°22'0 0.0
2014-Aug-30 05:32N 41°06' W 072°22'0 0.0
2014-Aug-30 04:32N 41°06' W 072°22'0 0.0
2014-Aug-30 03:33N 41°06' W 072°22'0 0.0
2014-Aug-30 02:31N 41°06' W 072°22'0 0.0
2014-Aug-30 01:31N 41°06' W 072°22'0 0.0
2014-Aug-30 00:32N 41°06' W 072°22'0 0.0
2014-Aug-29 23:33N 41°06' W 072°22'0 0.0
2014-Aug-29 22:33N 41°06' W 072°22'0 0.0
2014-Aug-29 21:31N 41°06' W 072°22'0 0.0
2014-Aug-29 20:32N 41°06' W 072°22'0 0.0
2014-Aug-29 19:32N 41°06' W 072°22'0 0.0
2014-Aug-29 18:33N 41°06' W 072°22'0 0.0
2014-Aug-29 17:31N 41°06' W 072°22'0 0.0
2014-Aug-29 16:31N 41°06' W 072°22'0 0.0
2014-Aug-29 15:32N 41°06' W 072°22'0 0.0
2014-Aug-29 14:33N 41°06' W 072°22'0 0.0
2014-Aug-29 13:33N 41°06' W 072°22'0 0.0
2014-Aug-29 12:31N 41°06' W 072°22'0 0.0
2014-Aug-29 11:32N 41°06' W 072°22'0 0.0
2014-Aug-29 10:32N 41°06' W 072°22'0 0.0
2014-Aug-29 09:33N 41°06' W 072°22'0 0.0
2014-Aug-29 08:31N 41°06' W 072°22'0 0.0
2014-Aug-29 07:31N 41°06' W 072°22'0 0.0
2014-Aug-29 06:32N 41°06' W 072°22'0 0.0
2014-Aug-29 05:33N 41°06' W 072°22'0 0.0
2014-Aug-29 04:33N 41°06' W 072°22'0 0.0
2014-Aug-29 03:31N 41°06' W 072°22'0 0.0
2014-Aug-29 02:32N 41°06' W 072°22'0 0.0
2014-Aug-29 01:32N 41°06' W 072°22'0 0.0
2014-Aug-29 00:33N 41°06' W 072°22'0 0.0
2014-Aug-28 23:31N 41°06' W 072°22'0 0.0
2014-Aug-28 22:31N 41°06' W 072°22'0 0.0
2014-Aug-28 21:32N 41°06' W 072°22'0 0.0
2014-Aug-28 20:33N 41°06' W 072°22'0 0.0
2014-Aug-28 19:33N 41°06' W 072°22'0 0.0
2014-Aug-28 18:31N 41°06' W 072°22'0 0.0
2014-Aug-28 17:32N 41°06' W 072°22'0 0.0
2014-Aug-28 16:33N 41°06' W 072°22'0 0.0
2014-Aug-28 15:33N 41°06' W 072°22'0 0.0
2014-Aug-28 14:31N 41°06' W 072°22'0 0.0
2014-Aug-28 13:32N 41°06' W 072°22'0 0.0
2014-Aug-28 12:32N 41°06' W 072°22'0 0.0
2014-Aug-28 11:33N 41°06' W 072°22'0 0.0
2014-Aug-28 10:34N 41°06' W 072°22'0 0.0
2014-Aug-28 09:31N 41°06' W 072°22'0 0.0
2014-Aug-28 08:32N 41°06' W 072°22'0 0.0
2014-Aug-28 07:33N 41°06' W 072°22'0 0.0
2014-Aug-28 06:33N 41°06' W 072°22'0 0.0
2014-Aug-28 05:31N 41°06' W 072°22'0 0.0
2014-Aug-28 04:32N 41°06' W 072°22'0 0.0
2014-Aug-28 03:32N 41°06' W 072°22'0 0.0
2014-Aug-28 02:30N 41°06' W 072°22'0 0.0
2014-Aug-28 01:31N 41°06' W 072°22'0 0.0
2014-Aug-28 00:31N 41°06' W 072°22'0 0.0
2014-Aug-27 23:32N 41°06' W 072°22'0 0.0
2014-Aug-27 22:33N 41°06' W 072°22'0 0.0
2014-Aug-27 21:33N 41°06' W 072°22'0 0.0
2014-Aug-27 20:31N 41°06' W 072°22'0 0.0
2014-Aug-27 19:32N 41°06' W 072°22'0 0.0
2014-Aug-27 18:32N 41°06' W 072°22'0 0.0
2014-Aug-27 17:33N 41°06' W 072°22'0 0.0
2014-Aug-27 16:31N 41°06' W 072°22'0 0.0
2014-Aug-27 15:31N 41°06' W 072°22'0 0.0
2014-Aug-27 14:32N 41°06' W 072°22'0 0.0
2014-Aug-27 13:33N 41°06' W 072°22'0 0.0
2014-Aug-27 12:33N 41°06' W 072°22'0 0.0
2014-Aug-27 11:31N 41°06' W 072°22'0 0.0
2014-Aug-27 10:32N 41°06' W 072°22'0 0.0
2014-Aug-27 09:32N 41°06' W 072°22'0 0.0
2014-Aug-27 08:33N 41°06' W 072°22'0 0.0
2014-Aug-27 07:33N 41°06' W 072°22'0 0.0
2014-Aug-27 06:33N 41°06' W 072°22'0 0.0
2014-Aug-27 05:31N 41°06' W 072°22'0 0.0
2014-Aug-27 04:26N 41°06' W 072°22'0 0.0
2014-Aug-27 03:32N 41°06' W 072°22'0 0.0
2014-Aug-27 02:31N 41°06' W 072°22'0 0.0
2014-Aug-27 01:33N 41°06' W 072°22'0 0.0
2014-Aug-27 00:27N 41°06' W 072°22'0 0.0
2014-Aug-26 23:31N 41°06' W 072°22'0 0.0
2014-Aug-26 22:31N 41°06' W 072°22'0 0.0
2014-Aug-26 21:31N 41°06' W 072°22'0 0.0
2014-Aug-26 20:32N 41°06' W 072°22'0 0.0
2014-Aug-26 19:33N 41°06' W 072°22'0 0.0
2014-Aug-26 18:33N 41°06' W 072°22'0 0.0
2014-Aug-26 17:31N 41°06' W 072°22'0 0.0
2014-Aug-26 16:32N 41°06' W 072°22'0 0.0
2014-Aug-26 15:32N 41°06' W 072°22'0 0.0
2014-Aug-26 14:33N 41°06' W 072°22'0 0.0
2014-Aug-26 13:31N 41°06' W 072°22'0 0.0
2014-Aug-26 12:31N 41°06' W 072°22'0 0.0
2014-Aug-26 11:32N 41°06' W 072°22'0 0.0
2014-Aug-26 10:33N 41°06' W 072°22'0 0.0
2014-Aug-26 09:33N 41°06' W 072°22'0 0.0
2014-Aug-26 08:31N 41°06' W 072°22'0 0.0
2014-Aug-26 07:32N 41°06' W 072°22'0 0.0
2014-Aug-26 06:32N 41°06' W 072°22'0 0.0
2014-Aug-26 05:33N 41°06' W 072°22'0 0.0
2014-Aug-26 04:31N 41°06' W 072°22'0 0.0
2014-Aug-26 03:32N 41°06' W 072°22'0 0.0
2014-Aug-26 02:32N 41°06' W 072°22'0 0.0
2014-Aug-26 01:33N 41°06' W 072°22'0 0.0
2014-Aug-26 00:33N 41°06' W 072°22'0 0.0
2014-Aug-25 23:31N 41°06' W 072°22'0 0.0
2014-Aug-25 22:32N 41°06' W 072°22'0 0.0
2014-Aug-25 21:33N 41°06' W 072°22'0 0.0
2014-Aug-25 20:33N 41°06' W 072°22'0 0.0
2014-Aug-25 19:31N 41°06' W 072°22'0 0.0
2014-Aug-25 18:29N 41°06' W 072°22'0 0.0
2014-Aug-25 17:32N 41°06' W 072°22'0 0.0
2014-Aug-25 16:33N 41°06' W 072°22'0 0.0
2014-Aug-25 15:34N 41°06' W 072°22'0 0.0
2014-Aug-25 14:31N 41°06' W 072°22'0 0.0
2014-Aug-25 13:32N 41°06' W 072°22'0 0.0
2014-Aug-25 12:33N 41°06' W 072°22'0 0.0
2014-Aug-25 11:33N 41°06' W 072°22'0 0.0
2014-Aug-25 10:31N 41°06' W 072°22'0 0.0
2014-Aug-25 09:32N 41°06' W 072°22'0 0.0
2014-Aug-25 08:32N 41°06' W 072°22'0 0.0
2014-Aug-25 07:33N 41°06' W 072°22'0 0.0
2014-Aug-25 06:34N 41°06' W 072°22'0 0.0
2014-Aug-25 05:31N 41°06' W 072°22'0 0.0
2014-Aug-25 04:32N 41°06' W 072°22'0 0.0
2014-Aug-25 03:33N 41°06' W 072°22'0 0.0
2014-Aug-25 02:33N 41°06' W 072°22'0 0.0
2014-Aug-25 01:31N 41°06' W 072°22'0 0.0
2014-Aug-25 00:32N 41°06' W 072°22'0 0.0
2014-Aug-24 23:32N 41°06' W 072°22'0 0.0
2014-Aug-24 22:33N 41°06' W 072°22'0 0.0
2014-Aug-24 21:31N 41°06' W 072°22'0 0.0
2014-Aug-24 20:31N 41°06' W 072°22'0 0.0
2014-Aug-24 19:32N 41°06' W 072°22'0 0.0
2014-Aug-24 18:33N 41°06' W 072°22'0 0.0
2014-Aug-24 17:33N 41°06' W 072°22'0 0.0
2014-Aug-24 16:28N 41°06' W 072°22'0 0.0
2014-Aug-24 15:32N 41°06' W 072°22'0 0.0
2014-Aug-24 14:32N 41°06' W 072°22'0 0.0
2014-Aug-24 13:33N 41°06' W 072°22'0 0.0
2014-Aug-24 12:31N 41°06' W 072°22'0 0.0
2014-Aug-24 11:31N 41°06' W 072°22'0 0.0
2014-Aug-24 10:32N 41°06' W 072°22'0 0.0
2014-Aug-24 09:33N 41°06' W 072°22'0 0.0
2014-Aug-24 08:33N 41°06' W 072°22'0 0.0
2014-Aug-24 07:31N 41°06' W 072°22'0 0.0
2014-Aug-24 06:32N 41°06' W 072°22'0 0.0
2014-Aug-24 05:32N 41°06' W 072°22'0 0.0
2014-Aug-24 04:33N 41°06' W 072°22'0 0.0
2014-Aug-24 03:31N 41°06' W 072°22'0 0.0
2014-Aug-24 02:31N 41°06' W 072°22'0 0.0
2014-Aug-24 01:32N 41°06' W 072°22'0 0.0
2014-Aug-24 00:33N 41°06' W 072°22'0 0.0
2014-Aug-23 23:33N 41°06' W 072°22'0 0.0
2014-Aug-23 22:31N 41°06' W 072°22'0 0.0
2014-Aug-23 21:32N 41°06' W 072°22'0 0.0
2014-Aug-23 20:32N 41°06' W 072°22'0 0.0
2014-Aug-23 19:33N 41°06' W 072°22'0 0.0
2014-Aug-23 03:32N 41°06' W 072°22'0 0.0
2014-Aug-23 02:33N 41°06' W 072°22'0 0.0
2014-Aug-23 01:33N 41°06' W 072°22'0 0.0
2014-Aug-23 00:31N 41°06' W 072°22'0 0.0
2014-Aug-22 23:32N 41°06' W 072°22'0 0.0
2014-Aug-22 22:32N 41°06' W 072°22'0 0.0
2014-Aug-22 21:33N 41°06' W 072°22'0 0.0
2014-Aug-22 20:31N 41°06' W 072°22'0 0.0
2014-Aug-22 19:31N 41°06' W 072°22'0 0.0
2014-Aug-22 18:32N 41°06' W 072°22'0 0.0
2014-Aug-22 17:33N 41°06' W 072°22'0 0.0
2014-Aug-22 16:33N 41°06' W 072°22'0 0.0
2014-Aug-22 15:31N 41°06' W 072°22'0 0.0
2014-Aug-22 14:32N 41°06' W 072°22'  

Dump ship's entire track history